createdAt,value
2023-04-08T00:02:19.033Z,25.25
2023-04-08T00:05:04.870Z,26.55
2023-04-08T00:07:50.379Z,25.00
2023-04-08T00:10:35.736Z,23.23
2023-04-08T00:13:21.263Z,23.23
2023-04-08T00:16:06.762Z,25.23
2023-04-08T00:18:52.469Z,26.50
2023-04-08T00:21:37.717Z,26.38
2023-04-08T00:24:23.239Z,30.10
2023-04-08T00:27:08.991Z,28.80
2023-04-08T00:29:54.421Z,31.73
2023-04-08T00:32:39.961Z,39.22
2023-04-08T00:35:25.700Z,37.17
2023-04-08T00:38:11.438Z,33.97
2023-04-08T00:40:58.292Z,32.72
2023-04-08T00:43:43.580Z,33.33
2023-04-08T00:46:29.223Z,36.13
2023-04-08T00:49:14.647Z,33.38
2023-04-08T00:52:00.532Z,35.45
2023-04-08T00:54:45.711Z,35.70
2023-04-08T00:57:31.232Z,30.73
2023-04-08T01:00:16.744Z,30.00
2023-04-08T01:03:14.821Z,26.73
2023-04-08T01:06:21.501Z,24.95
2023-04-08T01:09:07.318Z,31.23
2023-04-08T01:11:53.709Z,30.65
2023-04-08T01:14:43.949Z,30.60
2023-04-08T01:17:31.303Z,30.17
2023-04-08T01:20:17.478Z,30.30
2023-04-08T01:23:29.129Z,35.45
2023-04-08T01:26:23.194Z,37.20
2023-04-08T01:29:12.703Z,29.90
2023-04-08T01:31:59.651Z,24.40
2023-04-08T01:34:46.372Z,31.55
2023-04-08T01:37:32.928Z,13.40
2023-04-08T01:40:19.832Z,11.98
2023-04-08T01:43:09.769Z,10.10
2023-04-08T01:45:58.391Z,11.15
2023-04-08T01:48:45.914Z,11.60
2023-04-08T01:51:32.015Z,11.98
2023-04-08T01:54:17.993Z,13.05
2023-04-08T01:57:08.800Z,12.68
2023-04-08T01:59:59.446Z,14.02
2023-04-08T02:02:47.317Z,14.32
2023-04-08T02:05:33.975Z,16.50
2023-04-08T02:08:19.373Z,19.45
2023-04-08T02:11:05.499Z,18.00
2023-04-08T02:13:50.900Z,16.38
2023-04-08T02:16:42.361Z,15.88
2023-04-08T02:19:35.810Z,15.02
2023-04-08T02:22:38.460Z,12.98
2023-04-08T02:25:25.887Z,11.27
2023-04-08T02:28:12.236Z,10.73
2023-04-08T02:30:57.994Z,12.30
2023-04-08T02:33:44.167Z,17.27
2023-04-08T02:36:32.107Z,19.48
2023-04-08T02:39:19.315Z,17.98
2023-04-08T02:42:07.290Z,16.85
2023-04-08T02:44:52.907Z,16.73
2023-04-08T02:47:38.195Z,15.50
2023-04-08T02:50:24.264Z,19.35
2023-04-08T02:53:09.751Z,18.98
2023-04-08T02:55:56.212Z,17.75
2023-04-08T02:58:41.607Z,19.40
2023-04-08T03:01:27.292Z,19.35
2023-04-08T03:04:12.765Z,18.13
2023-04-08T03:06:58.213Z,17.90
2023-04-08T03:09:43.709Z,17.90
2023-04-08T03:12:29.381Z,17.05
2023-04-08T03:15:15.122Z,21.52
2023-04-08T03:18:00.671Z,17.42
2023-04-08T03:20:46.376Z,18.35
2023-04-08T03:23:31.922Z,18.45
2023-04-08T03:26:17.415Z,17.80
2023-04-08T03:29:02.901Z,18.70
2023-04-08T03:31:48.346Z,18.02
2023-04-08T03:34:36.826Z,17.05
2023-04-08T03:37:22.346Z,16.42
2023-04-08T03:40:08.529Z,18.27
2023-04-08T03:42:53.813Z,15.60
2023-04-08T03:45:39.571Z,15.77
2023-04-08T03:48:43.968Z,13.60
2023-04-08T03:51:29.248Z,17.33
2023-04-08T03:54:14.902Z,15.68
2023-04-08T03:57:00.328Z,15.15
2023-04-08T03:59:45.946Z,16.50
2023-04-08T04:02:31.148Z,16.08
2023-04-08T04:05:16.389Z,14.75
2023-04-08T04:08:01.790Z,17.20
2023-04-08T04:10:47.110Z,14.75
2023-04-08T04:13:32.578Z,13.63
2023-04-08T04:16:18.131Z,16.08
2023-04-08T04:19:03.653Z,12.55
2023-04-08T04:21:49.194Z,15.15
2023-04-08T04:24:34.523Z,12.98
2023-04-08T04:27:20.198Z,14.52
2023-04-08T04:30:07.380Z,15.15
2023-04-08T04:32:52.477Z,11.77
2023-04-08T04:35:39.856Z,14.95
2023-04-08T04:38:26.994Z,12.90
2023-04-08T04:41:12.593Z,14.65
2023-04-08T04:43:58.089Z,16.95
2023-04-08T04:46:43.576Z,17.58
2023-04-08T04:49:29.188Z,16.08
2023-04-08T04:52:14.809Z,14.35
2023-04-08T04:55:00.384Z,15.43
2023-04-08T04:57:45.842Z,15.20
2023-04-08T05:00:31.381Z,18.13
2023-04-08T05:03:17.000Z,17.92
2023-04-08T05:06:02.353Z,15.10
2023-04-08T05:08:47.964Z,14.68
2023-04-08T05:11:33.533Z,15.45
2023-04-08T05:14:18.900Z,15.45
2023-04-08T05:17:05.714Z,14.75
2023-04-08T05:19:51.928Z,15.65
2023-04-08T05:22:37.293Z,14.88
2023-04-08T05:25:22.818Z,15.95
2023-04-08T05:28:08.277Z,13.23
2023-04-08T05:30:54.553Z,14.57
2023-04-08T05:33:39.737Z,13.07
2023-04-08T05:36:26.315Z,13.88
2023-04-08T05:39:11.955Z,14.70
2023-04-08T05:41:57.665Z,13.82
2023-04-08T05:44:43.906Z,12.18
2023-04-08T05:47:29.084Z,13.05
2023-04-08T05:50:14.671Z,13.27
2023-04-08T05:53:00.172Z,11.35
2023-04-08T05:55:45.677Z,11.93
2023-04-08T05:58:31.274Z,13.88
2023-04-08T06:01:16.810Z,13.43
2023-04-08T06:04:02.370Z,12.30
2023-04-08T06:06:47.717Z,13.73
2023-04-08T06:09:36.602Z,12.20
2023-04-08T06:12:21.826Z,11.18
2023-04-08T06:15:08.263Z,10.43
2023-04-08T06:17:53.548Z,9.13
2023-04-08T06:20:38.862Z,11.55
2023-04-08T06:23:24.270Z,9.73
2023-04-08T06:26:09.791Z,9.07
2023-04-08T06:28:55.589Z,9.18
2023-04-08T06:31:41.445Z,9.90
2023-04-08T06:34:26.823Z,8.88
2023-04-08T06:37:12.443Z,7.25
2023-04-08T06:39:58.223Z,9.02
2023-04-08T06:42:44.394Z,8.27
2023-04-08T06:45:48.039Z,8.57
2023-04-08T06:48:34.274Z,8.00
2023-04-08T06:51:19.464Z,7.82
2023-04-08T06:54:05.270Z,9.45
2023-04-08T06:56:50.421Z,7.60
2023-04-08T06:59:35.923Z,8.55
2023-04-08T07:02:22.945Z,7.90
2023-04-08T07:05:08.747Z,7.20
2023-04-08T07:07:53.888Z,9.75
2023-04-08T07:10:39.376Z,6.45
2023-04-08T07:13:24.686Z,8.40
2023-04-08T07:16:09.993Z,7.35
2023-04-08T07:18:55.561Z,8.65
2023-04-08T07:21:41.450Z,8.10
2023-04-08T07:24:27.042Z,7.43
2023-04-08T07:27:12.532Z,7.20
2023-04-08T07:29:58.007Z,8.77
2023-04-08T07:32:43.390Z,6.78
2023-04-08T07:35:29.019Z,7.90
2023-04-08T07:38:14.694Z,7.20
2023-04-08T07:41:00.622Z,7.40
2023-04-08T07:43:46.134Z,7.75
2023-04-08T07:46:31.685Z,6.63
2023-04-08T07:49:17.211Z,6.30
2023-04-08T07:52:02.289Z,6.30
2023-04-08T07:54:47.686Z,5.30
2023-04-08T07:57:32.950Z,7.78
2023-04-08T08:00:21.760Z,8.70
2023-04-08T08:03:07.251Z,7.22
2023-04-08T08:05:52.571Z,7.47
2023-04-08T08:08:37.829Z,7.40
2023-04-08T08:11:23.367Z,7.78
2023-04-08T08:14:08.783Z,7.65
2023-04-08T08:16:54.309Z,7.18
2023-04-08T08:19:39.613Z,6.63
2023-04-08T08:22:25.467Z,7.20
2023-04-08T08:25:10.757Z,8.35
2023-04-08T08:27:56.612Z,8.13
2023-04-08T08:30:41.735Z,8.30
2023-04-08T08:33:27.188Z,10.43
2023-04-08T08:36:13.320Z,8.82
2023-04-08T08:38:58.522Z,11.35
2023-04-08T08:41:43.994Z,8.05
2023-04-08T08:44:30.700Z,8.25
2023-04-08T08:47:19.137Z,9.40
2023-04-08T08:50:05.204Z,10.10
2023-04-08T08:52:52.015Z,8.85
2023-04-08T08:56:05.786Z,8.07
2023-04-08T08:58:44.954Z,8.18
2023-04-08T09:01:34.082Z,8.90
2023-04-08T09:04:22.660Z,9.93
2023-04-08T09:07:13.833Z,10.00
2023-04-08T09:09:59.722Z,9.73
2023-04-08T09:12:58.516Z,12.95
2023-04-08T09:16:10.478Z,12.88
2023-04-08T09:19:10.123Z,9.90
2023-04-08T09:22:09.421Z,10.27
2023-04-08T09:24:55.296Z,11.32
2023-04-08T09:27:40.391Z,8.80
2023-04-08T09:30:27.311Z,11.85
2023-04-08T09:33:12.640Z,10.70
2023-04-08T09:35:58.555Z,10.73
2023-04-08T09:38:44.821Z,10.50
2023-04-08T09:41:36.542Z,10.18
2023-04-08T09:44:24.871Z,11.07
2023-04-08T09:47:19.097Z,9.93
2023-04-08T09:50:05.854Z,11.75
2023-04-08T09:52:57.173Z,12.80
2023-04-08T09:55:43.653Z,10.50
2023-04-08T09:58:32.721Z,10.73
2023-04-08T10:01:24.517Z,12.15
2023-04-08T10:04:15.057Z,11.45
2023-04-08T10:07:06.346Z,10.75
2023-04-08T10:09:52.359Z,11.38
2023-04-08T10:12:38.183Z,11.00
2023-04-08T10:15:31.462Z,14.68
2023-04-08T10:18:20.302Z,12.88
2023-04-08T10:21:27.096Z,12.98
2023-04-08T10:24:12.190Z,11.60
2023-04-08T10:26:58.190Z,13.00
2023-04-08T10:29:43.885Z,11.40
2023-04-08T10:32:30.111Z,11.32
2023-04-08T10:35:15.713Z,12.23
2023-04-08T10:38:01.430Z,10.88
2023-04-08T10:40:49.037Z,11.25
2023-04-08T10:43:35.022Z,9.32
2023-04-08T10:46:21.694Z,11.65
2023-04-08T10:49:08.778Z,11.98
2023-04-08T10:51:54.317Z,10.90
2023-04-08T10:54:48.384Z,12.13
2023-04-08T10:57:34.461Z,12.52
2023-04-08T11:00:39.387Z,11.68
2023-04-08T11:03:27.944Z,10.15
2023-04-08T11:06:13.854Z,12.27
2023-04-08T11:09:00.149Z,9.20
2023-04-08T11:11:46.973Z,10.27
2023-04-08T11:14:33.173Z,10.55
2023-04-08T11:17:19.156Z,10.50
2023-04-08T11:20:06.240Z,9.13
2023-04-08T11:22:52.186Z,9.80
2023-04-08T11:25:37.510Z,9.65
2023-04-08T11:28:23.239Z,10.13
2023-04-08T11:31:09.504Z,10.43
2023-04-08T11:33:56.680Z,10.82
2023-04-08T11:36:42.274Z,11.63
2023-04-08T11:39:27.475Z,11.52
2023-04-08T11:42:32.880Z,10.02
2023-04-08T11:45:20.299Z,11.32
2023-04-08T11:48:14.017Z,11.52
2023-04-08T11:51:04.745Z,14.38
2023-04-08T11:53:52.699Z,12.90
2023-04-08T11:56:50.643Z,14.77
2023-04-08T11:59:36.854Z,14.18
2023-04-08T12:02:22.370Z,14.75
2023-04-08T12:05:08.495Z,14.48
2023-04-08T12:07:54.146Z,17.40
2023-04-08T12:10:39.425Z,12.70
2023-04-08T12:13:24.972Z,13.35
2023-04-08T12:16:10.511Z,12.90
2023-04-08T12:18:56.101Z,11.13
2023-04-08T12:21:41.277Z,11.00
2023-04-08T12:24:26.840Z,10.57
2023-04-08T12:27:13.390Z,9.77
2023-04-08T12:29:59.216Z,8.77
2023-04-08T12:32:45.937Z,8.32
2023-04-08T12:35:31.578Z,9.45
2023-04-08T12:38:17.529Z,10.55
2023-04-08T12:41:03.142Z,9.55
2023-04-08T12:43:48.486Z,10.07
2023-04-08T12:46:34.175Z,11.35
2023-04-08T12:49:19.824Z,9.88
2023-04-08T12:52:05.434Z,11.95
2023-04-08T12:54:50.585Z,11.55
2023-04-08T12:57:36.187Z,11.25
2023-04-08T13:00:21.625Z,13.80
2023-04-08T13:03:07.345Z,14.40
2023-04-08T13:05:52.539Z,12.07
2023-04-08T13:08:38.024Z,12.32
2023-04-08T13:11:23.602Z,12.70
2023-04-08T13:14:09.094Z,13.63
2023-04-08T13:16:54.180Z,14.57
2023-04-08T13:19:39.748Z,12.85
2023-04-08T13:22:25.199Z,12.77
2023-04-08T13:25:10.468Z,18.73
2023-04-08T13:27:56.132Z,13.73
2023-04-08T13:30:42.426Z,15.98
2023-04-08T13:33:27.469Z,15.52
2023-04-08T13:36:12.938Z,11.77
2023-04-08T13:38:58.446Z,12.40
2023-04-08T13:41:44.115Z,12.93
2023-04-08T13:44:29.776Z,12.95
2023-04-08T13:47:15.464Z,15.25
2023-04-08T13:50:00.797Z,14.82
2023-04-08T13:52:46.494Z,13.95
2023-04-08T13:55:31.704Z,16.52
2023-04-08T13:58:23.312Z,15.38
2023-04-08T14:01:09.931Z,13.77
2023-04-08T14:03:55.630Z,13.85
2023-04-08T14:06:40.972Z,12.48
2023-04-08T14:09:26.603Z,12.65
2023-04-08T14:12:12.420Z,13.23
2023-04-08T14:14:58.004Z,16.00
2023-04-08T14:17:43.511Z,15.77
2023-04-08T14:20:29.748Z,14.27
2023-04-08T14:23:14.865Z,13.35
2023-04-08T14:26:01.553Z,13.82
2023-04-08T14:28:50.273Z,13.55
2023-04-08T14:31:36.550Z,11.85
2023-04-08T14:34:22.121Z,12.68
2023-04-08T14:37:08.029Z,13.05
2023-04-08T14:39:53.405Z,12.13
2023-04-08T14:42:39.134Z,13.35
2023-04-08T14:45:24.300Z,14.32
2023-04-08T14:48:09.925Z,12.77
2023-04-08T14:50:55.854Z,17.05
2023-04-08T14:53:41.637Z,14.88
2023-04-08T14:56:26.898Z,14.07
2023-04-08T14:59:12.378Z,16.40
2023-04-08T15:01:57.863Z,13.52
2023-04-08T15:04:43.403Z,14.55
2023-04-08T15:07:28.769Z,12.48
2023-04-08T15:10:14.530Z,14.32
2023-04-08T15:12:59.905Z,14.00
2023-04-08T15:15:45.478Z,14.55
2023-04-08T15:18:31.029Z,16.05
2023-04-08T15:21:16.459Z,14.77
2023-04-08T15:24:01.619Z,15.43
2023-04-08T15:26:47.095Z,15.27
2023-04-08T15:29:32.426Z,14.02
2023-04-08T15:32:18.144Z,14.40
2023-04-08T15:35:03.414Z,15.63
2023-04-08T15:37:48.862Z,13.57
2023-04-08T15:40:34.519Z,14.00
2023-04-08T15:43:19.714Z,14.75
2023-04-08T15:46:05.185Z,14.32
2023-04-08T15:48:51.549Z,15.70
2023-04-08T15:51:37.202Z,17.55
2023-04-08T15:54:22.605Z,13.65
2023-04-08T15:57:07.915Z,13.43
2023-04-08T15:59:53.730Z,13.00
2023-04-08T16:02:39.516Z,15.35
2023-04-08T16:05:25.407Z,14.13
2023-04-08T16:08:10.455Z,14.80
2023-04-08T16:11:06.187Z,17.25
2023-04-08T16:13:51.910Z,16.48
2023-04-08T16:16:38.733Z,14.95
2023-04-08T16:19:24.645Z,16.75
2023-04-08T16:22:09.954Z,15.90
2023-04-08T16:24:55.437Z,17.75
2023-04-08T16:27:41.209Z,15.52
2023-04-08T16:30:26.360Z,16.52
2023-04-08T16:33:11.656Z,15.70
2023-04-08T16:35:57.906Z,14.18
2023-04-08T16:38:43.436Z,14.88
2023-04-08T16:41:28.842Z,15.98
2023-04-08T16:44:14.744Z,17.30
2023-04-08T16:47:00.486Z,16.13
2023-04-08T16:49:46.298Z,16.05
2023-04-08T16:52:31.482Z,17.73
2023-04-08T16:55:17.480Z,16.17
2023-04-08T16:58:03.721Z,14.60
2023-04-08T17:00:49.715Z,17.13
2023-04-08T17:03:35.591Z,15.80
2023-04-08T17:06:21.806Z,16.65
2023-04-08T17:09:07.182Z,14.73
2023-04-08T17:11:52.732Z,14.93
2023-04-08T17:14:38.023Z,13.50
2023-04-08T17:17:23.593Z,17.98
2023-04-08T17:20:09.595Z,15.80
2023-04-08T17:22:55.916Z,12.90
2023-04-08T17:25:41.137Z,18.15
2023-04-08T17:28:27.126Z,15.70
2023-04-08T17:31:12.461Z,15.98
2023-04-08T17:33:57.827Z,16.08
2023-04-08T17:36:44.560Z,16.00
2023-04-08T17:39:31.390Z,12.50
2023-04-08T17:42:16.924Z,15.65
2023-04-08T17:45:02.667Z,17.13
2023-04-08T17:47:47.991Z,19.00
2023-04-08T17:50:33.442Z,15.52
2023-04-08T17:53:18.568Z,16.25
2023-04-08T17:56:05.895Z,18.45
2023-04-08T17:58:51.467Z,17.92
2023-04-08T18:01:37.499Z,16.85
2023-04-08T18:04:23.758Z,15.25
2023-04-08T18:07:09.316Z,20.10
2023-04-08T18:09:54.771Z,19.02
2023-04-08T18:12:40.200Z,19.05
2023-04-08T18:15:25.770Z,18.70
2023-04-08T18:18:11.568Z,18.77
2023-04-08T18:20:58.135Z,19.52
2023-04-08T18:23:43.575Z,20.15
2023-04-08T18:26:29.182Z,19.48
2023-04-08T18:29:14.927Z,18.17
2023-04-08T18:32:00.259Z,20.92
2023-04-08T18:34:45.804Z,17.77
2023-04-08T18:37:31.654Z,18.00
2023-04-08T18:40:17.853Z,19.23
2023-04-08T18:43:04.844Z,17.88
2023-04-08T18:45:50.511Z,20.38
2023-04-08T18:48:35.844Z,19.90
2023-04-08T18:51:21.450Z,19.80
2023-04-08T18:54:07.007Z,18.70
2023-04-08T18:56:52.140Z,21.10
2023-04-08T18:59:37.724Z,23.20
2023-04-08T19:02:23.209Z,20.27
2023-04-08T19:05:09.178Z,20.33
2023-04-08T19:07:54.334Z,22.08
2023-04-08T19:10:39.876Z,20.67
2023-04-08T19:13:25.751Z,23.98
2023-04-08T19:16:11.197Z,22.45
2023-04-08T19:18:56.984Z,22.25
2023-04-08T19:21:42.571Z,23.42
2023-04-08T19:24:28.050Z,22.58
2023-04-08T19:27:16.648Z,21.55
2023-04-08T19:30:02.479Z,21.48
2023-04-08T19:32:48.597Z,21.65
2023-04-08T19:35:34.599Z,22.38
2023-04-08T19:38:20.126Z,22.13
2023-04-08T19:41:05.851Z,22.92
2023-04-08T19:43:52.031Z,22.20
2023-04-08T19:46:38.141Z,23.17
2023-04-08T19:49:24.806Z,23.50
2023-04-08T19:52:10.480Z,21.23
2023-04-08T19:54:55.619Z,21.63
2023-04-08T19:57:41.354Z,21.55
2023-04-08T20:00:28.043Z,21.13
2023-04-08T20:03:13.790Z,20.92
2023-04-08T20:05:59.293Z,22.35
2023-04-08T20:08:45.668Z,23.27
2023-04-08T20:11:32.266Z,22.38
2023-04-08T20:14:17.862Z,22.13
2023-04-08T20:17:04.438Z,20.92
2023-04-08T20:19:49.984Z,21.67
2023-04-08T20:22:35.771Z,24.27
2023-04-08T20:25:20.878Z,20.83
2023-04-08T20:28:06.405Z,22.42
2023-04-08T20:30:52.468Z,21.58
2023-04-08T20:33:44.158Z,22.25
2023-04-08T20:36:29.932Z,20.77
2023-04-08T20:39:15.291Z,22.80
2023-04-08T20:42:00.777Z,20.77
2023-04-08T20:44:46.324Z,22.58
2023-04-08T20:47:31.718Z,19.45
2023-04-08T20:50:17.141Z,22.15
2023-04-08T20:53:03.029Z,22.83
2023-04-08T20:55:48.425Z,21.23
2023-04-08T20:58:34.005Z,22.83
2023-04-08T21:01:19.391Z,25.08
2023-04-08T21:04:05.512Z,25.42
2023-04-08T21:06:51.168Z,26.67
2023-04-08T21:09:36.830Z,25.42
2023-04-08T21:12:22.339Z,27.27
2023-04-08T21:15:08.119Z,24.48
2023-04-08T21:17:53.581Z,27.00
2023-04-08T21:20:42.351Z,25.15
2023-04-08T21:23:27.988Z,28.45
2023-04-08T21:26:13.723Z,25.00
2023-04-08T21:28:59.087Z,25.17
2023-04-08T21:31:44.611Z,25.90
2023-04-08T21:34:29.801Z,26.90
2023-04-08T21:37:15.497Z,27.17
2023-04-08T21:40:01.297Z,28.60
2023-04-08T21:42:46.767Z,28.48
2023-04-08T21:45:31.946Z,29.58
2023-04-08T21:48:17.470Z,30.23
2023-04-08T21:51:03.055Z,33.33
2023-04-08T21:53:50.876Z,27.83
2023-04-08T21:56:36.347Z,31.52
2023-04-08T21:59:22.438Z,27.67
2023-04-08T22:02:08.785Z,29.05
2023-04-08T22:04:56.349Z,29.88
2023-04-08T22:07:41.524Z,31.45
2023-04-08T22:10:27.639Z,27.98
2023-04-08T22:13:14.200Z,31.08
2023-04-08T22:15:59.656Z,30.88
2023-04-08T22:18:44.865Z,31.10
2023-04-08T22:21:31.454Z,31.23
2023-04-08T22:24:18.330Z,28.83
2023-04-08T22:27:03.799Z,28.83
2023-04-08T22:29:49.215Z,31.35
2023-04-08T22:32:35.034Z,30.10
2023-04-08T22:35:20.321Z,27.55
2023-04-08T22:38:05.884Z,28.85
2023-04-08T22:40:51.056Z,28.85
2023-04-08T22:43:36.645Z,28.10
2023-04-08T22:46:22.183Z,28.08
2023-04-08T22:49:07.710Z,30.08
2023-04-08T22:51:53.421Z,30.55
2023-04-08T22:54:39.106Z,29.98
2023-04-08T22:57:24.338Z,31.83
2023-04-08T23:00:10.096Z,29.77
2023-04-08T23:02:57.731Z,31.67
2023-04-08T23:05:43.192Z,27.63
2023-04-08T23:08:28.524Z,32.47
2023-04-08T23:11:13.981Z,30.35
2023-04-08T23:13:59.480Z,31.88
2023-04-08T23:16:45.040Z,27.92
2023-04-08T23:19:30.805Z,32.63
2023-04-08T23:22:16.014Z,30.40
2023-04-08T23:25:01.462Z,31.27
2023-04-08T23:27:47.013Z,32.50
2023-04-08T23:30:32.261Z,30.17
2023-04-08T23:33:17.748Z,33.60
2023-04-08T23:36:11.118Z,31.60
2023-04-08T23:38:56.413Z,29.95
2023-04-08T23:41:41.647Z,34.95
2023-04-08T23:44:27.315Z,33.15
2023-04-08T23:47:12.473Z,35.65
2023-04-08T23:49:58.054Z,30.33
2023-04-08T23:52:43.484Z,33.33
2023-04-08T23:55:28.914Z,27.83
2023-04-08T23:58:14.230Z,30.27
